createdAt,value
2023-01-17T00:02:26.215Z,95562.69
2023-01-17T00:05:11.601Z,95560.09
2023-01-17T00:07:56.795Z,95560.53
2023-01-17T00:10:27.211Z,95566.25
2023-01-17T00:12:58.896Z,95570.53
2023-01-17T00:15:29.107Z,95569.25
2023-01-17T00:17:57.109Z,95566.66
2023-01-17T00:20:44.899Z,95573.13
2023-01-17T00:23:34.380Z,95564.69
2023-01-17T00:26:05.678Z,95583.22
2023-01-17T00:28:35.552Z,95569.31
2023-01-17T00:31:03.037Z,95587.38
2023-01-17T00:33:29.857Z,95600.72
2023-01-17T00:35:58.440Z,95603.72
2023-01-17T00:38:26.379Z,95600.16
2023-01-17T00:40:53.406Z,95603.84
2023-01-17T00:43:40.585Z,95605.84
2023-01-17T00:46:27.674Z,95604.06
2023-01-17T00:49:12.958Z,95624.88
2023-01-17T00:51:58.323Z,95626.53
2023-01-17T00:54:43.534Z,95643.41
2023-01-17T00:57:28.953Z,95643.38
2023-01-17T01:00:14.157Z,95650.59
2023-01-17T01:03:01.047Z,95657.63
2023-01-17T01:05:47.355Z,95668.34
2023-01-17T01:08:38.324Z,95666.22
2023-01-17T01:11:25.564Z,95671.41
2023-01-17T01:14:10.830Z,95669.22
2023-01-17T01:16:56.008Z,95681.69
2023-01-17T01:19:42.701Z,95684.63
2023-01-17T01:22:27.883Z,95684.16
2023-01-17T01:25:13.159Z,95689.88
2023-01-17T01:27:58.500Z,95693.19
2023-01-17T01:30:43.680Z,95696.56
2023-01-17T01:33:20.748Z,95702.16
2023-01-17T01:35:51.913Z,95702.25
2023-01-17T01:38:20.961Z,95702.91
2023-01-17T01:40:50.624Z,95707.75
2023-01-17T01:43:21.055Z,95720.31
2023-01-17T01:45:53.236Z,95736.91
2023-01-17T01:48:33.038Z,95733.59
2023-01-17T01:51:04.911Z,95740.19
2023-01-17T01:53:36.638Z,95729.66
2023-01-17T01:56:09.244Z,95746.25
2023-01-17T01:58:38.852Z,95746.91
2023-01-17T02:01:09.332Z,95750.38
2023-01-17T02:03:38.732Z,95752.00
2023-01-17T02:06:21.041Z,95748.34
2023-01-17T02:08:49.518Z,95757.72
2023-01-17T02:11:17.561Z,95761.91
2023-01-17T02:13:45.580Z,95768.63
2023-01-17T02:16:25.304Z,95777.03
2023-01-17T02:19:05.807Z,95788.66
2023-01-17T02:30:32.112Z,95835.06
2023-01-17T02:33:07.267Z,95846.69
2023-01-17T02:35:43.485Z,95862.03
2023-01-17T02:38:25.631Z,95875.97
2023-01-17T02:40:57.225Z,95879.66
2023-01-17T02:43:26.635Z,95894.63
2023-01-17T02:45:56.230Z,95906.75
2023-01-17T02:48:28.572Z,95925.38
2023-01-17T02:51:12.270Z,95918.06
2023-01-17T02:53:58.041Z,95927.88
2023-01-17T02:56:40.928Z,95928.91
2023-01-17T02:59:19.087Z,95936.91
2023-01-17T03:02:01.138Z,95932.91
2023-01-17T03:04:35.835Z,95940.22
2023-01-17T03:07:07.184Z,95934.56
2023-01-17T03:09:35.663Z,95931.09
2023-01-17T03:12:05.393Z,95931.94
2023-01-17T03:14:33.498Z,95932.94
2023-01-17T03:17:03.130Z,95940.91
2023-01-17T03:19:31.387Z,95936.25
2023-01-17T03:21:59.514Z,95937.09
2023-01-17T03:24:27.495Z,95947.06
2023-01-17T03:26:55.550Z,95950.94
2023-01-17T03:29:23.617Z,95960.25
2023-01-17T03:31:51.674Z,95967.41
2023-01-17T03:34:21.136Z,95954.56
2023-01-17T03:36:49.393Z,95967.53
2023-01-17T03:39:17.767Z,95972.72
2023-01-17T03:41:45.894Z,95973.53
2023-01-17T03:44:13.817Z,95983.03
2023-01-17T03:46:41.785Z,95985.84
2023-01-17T03:49:11.257Z,95994.16
2023-01-17T03:51:40.719Z,95989.88
2023-01-17T03:54:09.027Z,95990.88
2023-01-17T03:56:37.129Z,95996.69
2023-01-17T03:59:05.344Z,95986.88
2023-01-17T04:01:33.494Z,95996.69
2023-01-17T04:04:01.616Z,96007.19
2023-01-17T04:06:29.605Z,96017.81
2023-01-17T04:08:59.036Z,96015.81
2023-01-17T04:11:27.200Z,96015.19
2023-01-17T04:13:55.512Z,96018.19
2023-01-17T04:16:28.743Z,96011.19
2023-01-17T04:18:57.328Z,96015.53
2023-01-17T04:21:25.596Z,96033.91
2023-01-17T04:23:53.538Z,96045.19
2023-01-17T04:26:23.081Z,96045.66
2023-01-17T04:28:51.111Z,96049.38
2023-01-17T04:31:19.058Z,96047.50
2023-01-17T04:33:47.067Z,96057.00
2023-01-17T04:36:15.794Z,96056.31
2023-01-17T04:38:45.856Z,96053.75
2023-01-17T04:41:14.105Z,96064.47
2023-01-17T04:43:43.817Z,96079.13
2023-01-17T04:46:12.892Z,96084.66
2023-01-17T04:48:41.081Z,96086.28
2023-01-17T04:51:09.141Z,96089.94
2023-01-17T04:53:37.127Z,96091.34
2023-01-17T04:56:06.056Z,96099.63
2023-01-17T04:58:34.182Z,96099.81
2023-01-17T05:01:04.989Z,96110.16
2023-01-17T05:03:33.191Z,96119.03
2023-01-17T05:06:01.641Z,96114.56
2023-01-17T05:08:29.687Z,96122.16
2023-01-17T05:10:57.753Z,96123.22
2023-01-17T05:13:25.847Z,96117.72
2023-01-17T05:15:54.002Z,96115.59
2023-01-17T05:18:23.476Z,96127.19
2023-01-17T05:20:51.678Z,96142.75
2023-01-17T05:23:19.980Z,96157.03
2023-01-17T05:25:48.033Z,96166.16
2023-01-17T05:28:16.206Z,96161.84
2023-01-17T05:30:44.494Z,96165.69
2023-01-17T05:33:12.750Z,96174.22
2023-01-17T05:35:42.253Z,96182.03
2023-01-17T05:38:10.524Z,96187.19
2023-01-17T05:40:38.552Z,96192.72
2023-01-17T05:43:06.736Z,96187.13
2023-01-17T05:45:35.211Z,96183.75
2023-01-17T05:48:04.409Z,96188.44
2023-01-17T05:50:34.455Z,96170.31
2023-01-17T05:53:05.713Z,96188.19
2023-01-17T05:55:34.344Z,96186.78
2023-01-17T05:58:02.877Z,96196.25
2023-01-17T06:00:31.840Z,96198.38
2023-01-17T06:03:01.045Z,96214.53
2023-01-17T06:05:30.220Z,96215.56
2023-01-17T06:07:58.603Z,96221.31
2023-01-17T06:10:29.503Z,96230.91
2023-01-17T06:13:06.607Z,96219.13
2023-01-17T06:15:36.761Z,96229.78
2023-01-17T06:18:06.555Z,96232.22
2023-01-17T06:20:35.260Z,96240.19
2023-01-17T06:23:04.412Z,96230.00
2023-01-17T06:25:38.381Z,96230.22
2023-01-17T06:28:07.767Z,96223.75
2023-01-17T06:30:36.124Z,96228.69
2023-01-17T06:33:05.697Z,96241.66
2023-01-17T06:35:34.490Z,96245.97
2023-01-17T06:38:02.535Z,96249.63
2023-01-17T06:40:30.968Z,96242.53
2023-01-17T06:43:02.865Z,96244.56
2023-01-17T06:45:31.829Z,96243.09
2023-01-17T06:48:01.028Z,96259.16
2023-01-17T06:50:29.159Z,96265.16
2023-01-17T06:52:58.543Z,96269.13
2023-01-17T06:55:28.838Z,96270.78
2023-01-17T06:57:57.443Z,96274.78
2023-01-17T07:00:27.716Z,96279.09
2023-01-17T07:02:56.137Z,96290.84
2023-01-17T07:05:24.189Z,96290.25
2023-01-17T07:07:53.627Z,96298.69
2023-01-17T07:10:23.669Z,96303.66
2023-01-17T07:12:52.545Z,96299.31
2023-01-17T07:15:20.629Z,96306.91
2023-01-17T07:17:50.285Z,96306.06
2023-01-17T07:20:18.341Z,96297.44
2023-01-17T07:22:46.810Z,96292.81
2023-01-17T07:25:15.064Z,96298.53
2023-01-17T07:27:43.063Z,96293.81
2023-01-17T07:30:12.489Z,96297.94
2023-01-17T07:32:40.535Z,96293.50
2023-01-17T07:35:10.930Z,96300.16
2023-01-17T07:37:39.167Z,96301.19
2023-01-17T07:40:08.278Z,96297.06
2023-01-17T07:42:36.322Z,96305.03
2023-01-17T07:45:04.434Z,96294.75
2023-01-17T07:47:33.982Z,96299.94
2023-01-17T07:50:02.814Z,96309.84
2023-01-17T07:52:32.406Z,96322.88
2023-01-17T07:55:00.972Z,96327.13
2023-01-17T07:57:29.252Z,96345.59
2023-01-17T07:59:57.371Z,96344.16
2023-01-17T08:02:25.338Z,96350.78
2023-01-17T08:04:53.295Z,96352.44
2023-01-17T08:07:21.395Z,96352.44
2023-01-17T08:09:50.871Z,96351.13
2023-01-17T08:12:19.220Z,96372.75
2023-01-17T08:14:47.228Z,96364.63
2023-01-17T08:17:17.684Z,96383.53
2023-01-17T08:19:45.986Z,96365.88
2023-01-17T08:22:14.038Z,96363.72
2023-01-17T08:24:42.225Z,96377.41
2023-01-17T08:27:11.752Z,96388.63
2023-01-17T08:29:42.178Z,96403.91
2023-01-17T08:32:10.089Z,96406.91
2023-01-17T08:34:38.112Z,96413.50
2023-01-17T08:37:06.328Z,96410.75
2023-01-17T08:39:34.519Z,96419.34
2023-01-17T08:42:02.566Z,96422.25
2023-01-17T08:44:32.224Z,96414.44
2023-01-17T08:47:00.512Z,96428.44
2023-01-17T08:49:28.553Z,96417.34
2023-01-17T08:51:56.495Z,96412.44
2023-01-17T08:54:24.659Z,96423.84
2023-01-17T08:56:54.921Z,96429.56
2023-01-17T08:59:23.483Z,96428.25
2023-01-17T09:01:53.016Z,96428.59
2023-01-17T09:04:21.275Z,96436.00
2023-01-17T09:06:49.652Z,96439.06
2023-01-17T09:09:18.507Z,96442.72
2023-01-17T09:11:46.465Z,96436.41
2023-01-17T09:14:15.500Z,96417.09
2023-01-17T09:16:45.716Z,96423.69
2023-01-17T09:19:15.259Z,96419.44
2023-01-17T09:21:43.532Z,96424.09
2023-01-17T09:24:11.608Z,96432.41
2023-01-17T09:26:39.954Z,96461.91
2023-01-17T09:29:08.511Z,96477.50
2023-01-17T09:31:36.575Z,96505.56
2023-01-17T09:34:04.819Z,96538.44
2023-01-17T09:36:34.889Z,96572.72
2023-01-17T09:39:04.715Z,96606.78
2023-01-17T09:41:35.190Z,96649.97
2023-01-17T09:44:08.601Z,96668.75
2023-01-17T09:46:41.031Z,96711.03
2023-01-17T09:49:13.175Z,96769.75
2023-01-17T09:51:43.515Z,96817.22
2023-01-17T09:54:22.044Z,96839.72
2023-01-17T09:56:58.000Z,96858.16
2023-01-17T09:59:35.423Z,96869.59
2023-01-17T10:02:18.767Z,96895.00
2023-01-17T10:05:03.671Z,96879.75
2023-01-17T10:07:46.880Z,96889.59
2023-01-17T10:10:27.379Z,96902.66
2023-01-17T10:13:00.256Z,96891.03
2023-01-17T10:16:00.089Z,96888.44
2023-01-17T10:18:44.566Z,96894.22
2023-01-17T10:21:19.576Z,96900.28
2023-01-17T10:24:04.864Z,96902.00
2023-01-17T10:26:35.076Z,96913.25
2023-01-17T10:29:07.202Z,96914.28
2023-01-17T10:31:41.929Z,96927.88
2023-01-17T10:34:16.239Z,96918.50
2023-01-17T10:36:49.877Z,96936.56
2023-01-17T10:39:22.915Z,96925.84
2023-01-17T10:41:56.563Z,96945.16
2023-01-17T10:44:34.350Z,96934.00
2023-01-17T10:47:08.212Z,96939.91
2023-01-17T10:49:41.660Z,96942.97
2023-01-17T10:52:17.899Z,96945.34
2023-01-17T10:55:06.838Z,96935.63
2023-01-17T10:57:41.837Z,96944.31
2023-01-17T11:00:26.479Z,96952.63
2023-01-17T11:02:54.502Z,96936.31
2023-01-17T11:05:26.131Z,96938.28
2023-01-17T11:08:02.391Z,96943.97
2023-01-17T11:10:41.402Z,96940.06
2023-01-17T11:13:24.744Z,96950.31
2023-01-17T11:15:57.568Z,96950.16
2023-01-17T11:18:29.776Z,96948.56
2023-01-17T11:21:12.272Z,96962.81
2023-01-17T11:23:43.045Z,96965.59
2023-01-17T11:26:24.852Z,96971.72
2023-01-17T11:28:53.856Z,96969.88
2023-01-17T11:31:27.853Z,96998.03
2023-01-17T11:34:16.607Z,96986.28
2023-01-17T11:36:44.787Z,96993.22
2023-01-17T11:39:29.813Z,96992.84
2023-01-17T11:41:59.195Z,97038.59
2023-01-17T11:44:30.531Z,97072.53
2023-01-17T11:47:19.103Z,97072.81
2023-01-17T11:49:49.362Z,97082.72
2023-01-17T11:52:25.727Z,97108.03
2023-01-17T11:54:56.525Z,97114.81
2023-01-17T11:57:29.424Z,97100.25
2023-01-17T12:00:13.055Z,97116.78
2023-01-17T12:03:15.330Z,97124.97
2023-01-17T12:05:57.284Z,97115.78
2023-01-17T12:08:37.072Z,97113.50
2023-01-17T12:11:17.023Z,97115.59
2023-01-17T12:14:01.851Z,97126.28
2023-01-17T12:16:49.185Z,97142.63
2023-01-17T12:19:36.652Z,97140.44
2023-01-17T12:22:40.509Z,97143.13
2023-01-17T12:25:24.677Z,97130.50
2023-01-17T12:28:11.509Z,97138.91
2023-01-17T12:30:50.839Z,97138.25
2023-01-17T12:33:25.276Z,97151.97
2023-01-17T12:35:58.101Z,97154.34
2023-01-17T12:38:34.527Z,97181.00
2023-01-17T12:41:07.255Z,97183.78
2023-01-17T12:43:38.000Z,97179.81
2023-01-17T12:46:22.163Z,97153.50
2023-01-17T12:49:00.616Z,97155.31
2023-01-17T12:51:33.826Z,97147.81
2023-01-17T12:54:10.975Z,97153.38
2023-01-17T12:56:45.177Z,97166.88
2023-01-17T12:59:19.949Z,97180.56
2023-01-17T13:01:58.210Z,97189.72
2023-01-17T13:04:30.942Z,97195.09
2023-01-17T13:07:09.433Z,97198.09
2023-01-17T13:09:45.200Z,97194.41
2023-01-17T13:12:15.623Z,97192.44
2023-01-17T13:14:46.190Z,97197.56
2023-01-17T13:17:28.364Z,97205.69
2023-01-17T13:20:02.542Z,97222.59
2023-01-17T13:22:38.403Z,97212.22
2023-01-17T13:25:23.165Z,97222.75
2023-01-17T13:28:13.156Z,97229.09
2023-01-17T13:31:32.204Z,97223.13
2023-01-17T13:34:22.750Z,97238.13
2023-01-17T13:37:10.956Z,97243.47
2023-01-17T13:40:04.376Z,97253.31
2023-01-17T13:42:45.648Z,97258.97
2023-01-17T13:45:21.591Z,97279.09
2023-01-17T13:47:52.107Z,97279.91
2023-01-17T13:50:53.109Z,97285.69
2023-01-17T13:53:57.926Z,97269.06
2023-01-17T13:56:33.149Z,97258.66
2023-01-17T13:59:07.999Z,97248.25
2023-01-17T14:01:54.156Z,97259.78
2023-01-17T14:04:24.142Z,97249.63
2023-01-17T14:06:57.018Z,97248.81
2023-01-17T14:09:29.071Z,97256.97
2023-01-17T14:12:00.911Z,97262.72
2023-01-17T14:14:46.337Z,97263.56
2023-01-17T14:17:45.623Z,97249.09
2023-01-17T14:20:51.803Z,97253.59
2023-01-17T14:23:57.516Z,97257.25
2023-01-17T14:26:48.054Z,97262.44
2023-01-17T14:29:45.693Z,97275.28
2023-01-17T14:32:16.081Z,97274.25
2023-01-17T14:34:46.059Z,97297.22
2023-01-17T14:37:19.979Z,97279.75
2023-01-17T14:39:51.251Z,97283.72
2023-01-17T14:42:22.640Z,97278.91
2023-01-17T14:44:54.016Z,97275.81
2023-01-17T14:47:22.521Z,97272.19
2023-01-17T14:50:10.278Z,97268.06
2023-01-17T14:52:38.353Z,97282.44
2023-01-17T14:55:17.117Z,97298.47
2023-01-17T14:57:54.558Z,97295.09
2023-01-17T15:00:25.369Z,97307.06
2023-01-17T15:02:54.830Z,97320.97
2023-01-17T15:05:26.725Z,97323.66
2023-01-17T15:07:57.703Z,97320.56
2023-01-17T15:10:31.740Z,97325.63
2023-01-17T15:13:09.363Z,97319.44
2023-01-17T15:15:39.985Z,97324.50
2023-01-17T15:18:29.586Z,97327.03
2023-01-17T15:21:01.232Z,97321.81
2023-01-17T15:23:34.575Z,97330.66
2023-01-17T15:26:07.173Z,97319.44
2023-01-17T15:28:36.242Z,97313.81
2023-01-17T15:31:10.251Z,97310.88
2023-01-17T15:33:40.818Z,97297.50
2023-01-17T15:36:11.231Z,97291.03
2023-01-17T15:38:49.084Z,97292.84
2023-01-17T15:41:22.615Z,97283.72
2023-01-17T15:43:51.470Z,97285.41
2023-01-17T15:46:34.262Z,97282.44
2023-01-17T15:49:24.195Z,97286.25
2023-01-17T15:51:54.429Z,97267.72
2023-01-17T15:54:41.599Z,97260.69
2023-01-17T15:57:21.828Z,97251.56
2023-01-17T15:59:54.411Z,97247.03
2023-01-17T16:02:35.979Z,97241.00
2023-01-17T16:05:27.644Z,97234.38
2023-01-17T16:07:57.562Z,97238.84
2023-01-17T16:10:28.167Z,97222.31
2023-01-17T16:12:57.693Z,97238.00
2023-01-17T16:15:26.411Z,97207.56
2023-01-17T16:17:57.501Z,97220.44
2023-01-17T16:20:30.647Z,97207.97
2023-01-17T16:23:00.372Z,97214.00
2023-01-17T16:25:32.380Z,97212.59
2023-01-17T16:28:02.843Z,97217.38
2023-01-17T16:30:32.721Z,97230.66
2023-01-17T16:33:01.380Z,97207.56
2023-01-17T16:35:31.843Z,97207.56
2023-01-17T16:38:02.278Z,97201.63
2023-01-17T16:40:32.107Z,97206.25
2023-01-17T16:43:02.356Z,97203.44
2023-01-17T16:45:30.388Z,97206.09
2023-01-17T16:47:58.438Z,97196.56
2023-01-17T16:50:26.460Z,97191.91
2023-01-17T16:52:56.355Z,97205.50
2023-01-17T16:55:26.032Z,97193.59
2023-01-17T16:57:57.960Z,97190.91
2023-01-17T17:00:27.839Z,97179.13
2023-01-17T17:02:56.211Z,97174.78
2023-01-17T17:05:26.333Z,97174.94
2023-01-17T17:07:55.024Z,97189.91
2023-01-17T17:10:25.210Z,97201.84
2023-01-17T17:12:53.708Z,97199.72
2023-01-17T17:15:22.341Z,97206.69
2023-01-17T17:17:52.645Z,97188.19
2023-01-17T17:20:21.104Z,97184.34
2023-01-17T17:22:52.497Z,97180.13
2023-01-17T17:25:20.642Z,97182.63
2023-01-17T17:27:48.594Z,97174.94
2023-01-17T17:30:17.325Z,97179.09
2023-01-17T17:32:48.160Z,97183.00
2023-01-17T17:35:18.110Z,97182.53
2023-01-17T17:37:46.307Z,97176.31
2023-01-17T17:40:15.001Z,97183.03
2023-01-17T17:42:43.777Z,97183.28
2023-01-17T17:45:12.508Z,97181.28
2023-01-17T17:47:40.503Z,97179.88
2023-01-17T17:50:10.051Z,97174.59
2023-01-17T17:52:39.810Z,97184.53
2023-01-17T17:55:09.174Z,97181.72
2023-01-17T17:57:37.221Z,97187.81
2023-01-17T18:00:06.614Z,97191.13
2023-01-17T18:02:34.695Z,97190.88
2023-01-17T18:05:03.607Z,97188.94
2023-01-17T18:07:32.320Z,97196.84
2023-01-17T18:10:01.750Z,97194.56
2023-01-17T18:12:29.777Z,97189.63
2023-01-17T18:14:57.886Z,97201.16
2023-01-17T18:17:26.189Z,97204.78
2023-01-17T18:19:54.374Z,97200.91
2023-01-17T18:22:22.403Z,97208.06
2023-01-17T18:24:50.533Z,97211.34
2023-01-17T18:27:19.902Z,97214.38
2023-01-17T18:29:49.175Z,97214.03
2023-01-17T18:32:17.311Z,97208.00
2023-01-17T18:34:45.747Z,97213.59
2023-01-17T18:37:13.740Z,97223.00
2023-01-17T18:39:42.774Z,97213.25
2023-01-17T18:42:12.386Z,97208.75
2023-01-17T18:44:43.173Z,97208.75
2023-01-17T18:47:13.061Z,97210.94
2023-01-17T18:49:41.801Z,97206.09
2023-01-17T18:52:10.441Z,97227.88
2023-01-17T18:54:38.594Z,97226.31
2023-01-17T18:57:06.691Z,97228.25
2023-01-17T18:59:34.838Z,97217.47
2023-01-17T19:02:04.382Z,97220.16
2023-01-17T19:04:34.101Z,97216.53
2023-01-17T19:07:02.089Z,97219.69
2023-01-17T19:09:32.377Z,97218.97
2023-01-17T19:12:01.334Z,97222.56
2023-01-17T19:14:29.638Z,97227.50
2023-01-17T19:16:58.050Z,97231.97
2023-01-17T19:19:27.662Z,97235.25
2023-01-17T19:21:55.710Z,97235.13
2023-01-17T19:24:23.923Z,97241.88
2023-01-17T19:26:53.181Z,97236.31
2023-01-17T19:29:23.125Z,97232.72
2023-01-17T19:31:51.832Z,97223.53
2023-01-17T19:34:21.063Z,97225.69
2023-01-17T19:36:53.083Z,97226.69
2023-01-17T19:39:22.493Z,97229.78
2023-01-17T19:41:51.123Z,97219.78
2023-01-17T19:44:19.200Z,97234.75
2023-01-17T19:46:47.462Z,97241.88
2023-01-17T19:49:19.699Z,97241.63
2023-01-17T19:51:49.606Z,97249.78
2023-01-17T19:54:19.176Z,97247.03
2023-01-17T19:56:47.609Z,97251.97
2023-01-17T19:59:16.057Z,97249.09
2023-01-17T20:01:44.381Z,97253.22
2023-01-17T20:04:13.958Z,97247.53
2023-01-17T20:06:42.063Z,97245.72
2023-01-17T20:09:10.179Z,97257.16
2023-01-17T20:11:42.168Z,97268.84
2023-01-17T20:14:14.591Z,97262.25
2023-01-17T20:16:43.623Z,97260.19
2023-01-17T20:19:11.722Z,97269.44
2023-01-17T20:21:39.715Z,97273.66
2023-01-17T20:24:09.056Z,97295.53
2023-01-17T20:26:37.618Z,97273.78
2023-01-17T20:29:10.140Z,97285.47
2023-01-17T20:31:39.804Z,97288.38
2023-01-17T20:34:10.022Z,97283.56
2023-01-17T20:36:38.368Z,97289.56
2023-01-17T20:39:07.971Z,97304.84
2023-01-17T20:41:37.669Z,97306.69
2023-01-17T20:44:10.237Z,97314.97
2023-01-17T20:46:41.303Z,97313.91
2023-01-17T20:49:14.687Z,97321.69
2023-01-17T20:51:44.307Z,97325.00
2023-01-17T20:54:14.284Z,97320.59
2023-01-17T20:56:43.160Z,97326.38
2023-01-17T20:59:15.639Z,97327.94
2023-01-17T21:01:45.028Z,97337.97
2023-01-17T21:04:14.767Z,97334.31
2023-01-17T21:06:44.316Z,97334.25
2023-01-17T21:09:15.180Z,97334.88
2023-01-17T21:11:43.429Z,97330.44
2023-01-17T21:14:11.466Z,97331.94
2023-01-17T21:16:41.235Z,97330.88
2023-01-17T21:19:12.097Z,97325.97
2023-01-17T21:21:40.775Z,97327.16
2023-01-17T21:24:08.892Z,97340.34
2023-01-17T21:26:38.857Z,97345.84
2023-01-17T21:29:07.182Z,97342.03
2023-01-17T21:31:36.864Z,97347.84
2023-01-17T21:34:08.094Z,97352.59
2023-01-17T21:36:37.908Z,97345.19
2023-01-17T21:39:08.692Z,97352.41
2023-01-17T21:41:38.843Z,97350.91
2023-01-17T21:44:09.945Z,97345.66
2023-01-17T21:46:39.967Z,97372.06
2023-01-17T21:49:12.110Z,97365.88
2023-01-17T21:51:57.646Z,97359.03
2023-01-17T21:54:40.971Z,97379.28
2023-01-17T21:57:26.906Z,97377.63
2023-01-17T21:59:54.944Z,97385.06
2023-01-17T22:02:23.061Z,97392.03
2023-01-17T22:04:54.527Z,97378.28
2023-01-17T22:07:22.808Z,97377.97
2023-01-17T22:09:50.829Z,97390.56
2023-01-17T22:12:18.749Z,97387.19
2023-01-17T22:14:46.758Z,97389.09
2023-01-17T22:17:14.713Z,97381.44
2023-01-17T22:19:42.729Z,97383.59
2023-01-17T22:22:12.240Z,97386.00
2023-01-17T22:24:40.896Z,97380.59
2023-01-17T22:27:10.034Z,97375.59
2023-01-17T22:29:38.408Z,97383.44
2023-01-17T22:32:06.543Z,97389.81
2023-01-17T22:34:34.633Z,97395.03
2023-01-17T22:37:04.706Z,97391.84
2023-01-17T22:39:34.303Z,97397.25
2023-01-17T22:42:02.396Z,97398.44
2023-01-17T22:44:30.712Z,97404.13
2023-01-17T22:46:58.850Z,97397.03
2023-01-17T22:49:26.891Z,97402.22
2023-01-17T22:51:54.986Z,97405.53
2023-01-17T22:54:23.145Z,97398.00
2023-01-17T22:56:52.815Z,97398.22
2023-01-17T22:59:20.777Z,97393.75
2023-01-17T23:01:48.891Z,97390.13
2023-01-17T23:04:17.251Z,97392.91
2023-01-17T23:06:45.421Z,97399.69
2023-01-17T23:09:15.600Z,97408.25
2023-01-17T23:11:46.724Z,97413.47
2023-01-17T23:14:18.744Z,97417.19
2023-01-17T23:17:07.615Z,97412.41
2023-01-17T23:19:38.137Z,97409.00
2023-01-17T23:22:17.502Z,97417.19
2023-01-17T23:24:48.033Z,97420.44
2023-01-17T23:27:35.518Z,97423.19
2023-01-17T23:30:07.436Z,97420.88
2023-01-17T23:32:35.567Z,97431.88
2023-01-17T23:35:03.798Z,97432.19
2023-01-17T23:37:50.493Z,97430.59
2023-01-17T23:40:19.507Z,97425.72
2023-01-17T23:43:05.310Z,97418.53
2023-01-17T23:45:37.386Z,97416.53
2023-01-17T23:48:09.401Z,97410.53
2023-01-17T23:50:38.451Z,97412.81
2023-01-17T23:53:07.992Z,97424.56
2023-01-17T23:55:37.429Z,97426.16
2023-01-17T23:58:06.131Z,97432.28
